Terminal Aerodrome Forecast
Issued by NWS

Home | Current Version | Previous Version | Text Only | Print | Product List | Glossary On
Versions: 1 2 3 4 5 6 7 8 9 10 11 12 13 14 15 16 17 18 19
000
FTUS46 KOTX 211741
TAFSFF
TAF
KSFF 211741Z 2118/2218 08004KT P6SM SCT070 OVC200
     FM212100 12005KT P6SM VCSH SCT050 OVC090
     FM212300 13008KT P6SM -RA BKN029 OVC060
     FM220400 20009KT P6SM OVC025
     FM220800 21005KT P6SM SCT009 OVC015
     FM221700 20007KT P6SM VCSH SCT009 OVC015=

USA.gov is the U.S. government's official web portal to all federal, state and local government web resources and services.